Time;durP1;ratioP1;P1;durP2;ratioP2;P2;SDS_P1;SDS_P2;PMS_P1;PMS_P2;Temp;Humidity;BMP_temperature;BMP_pressure;BME280_temperature;BME280_humidity;BME280_pressure;Samples;Min_cycle;Max_cycle;Signal;HPM_P1;HPM_P2
2023/03/07 00:01:06;;;;;;;1.83;1.73;;;;;;;;;;4951053;28;20849;-61
2023/03/07 00:03:32;;;;;;;1.60;1.60;;;;;;;;;;4942899;28;20255;-61
2023/03/07 00:06:04;;;;;;;1.87;1.77;;;;;;;;;;4943971;28;20400;-61
2023/03/07 00:08:31;;;;;;;1.97;1.87;;;;;;;;;;4943265;28;20187;-61
2023/03/07 00:11:00;;;;;;;1.63;1.63;;;;;;;;;;4955488;28;20651;-61
2023/03/07 00:13:27;;;;;;;1.80;1.70;;;;;;;;;;4947697;28;20219;-61
2023/03/07 00:15:53;;;;;;;1.47;1.47;;;;;;;;;;4940818;28;20191;-61
2023/03/07 00:18:19;;;;;;;1.40;1.40;;;;;;;;;;4941342;28;20319;-61
2023/03/07 00:20:45;;;;;;;1.60;1.60;;;;;;;;;;4947937;28;20219;-61
2023/03/07 00:23:11;;;;;;;1.60;1.60;;;;;;;;;;4944780;28;20203;-61
2023/03/07 00:25:37;;;;;;;1.57;1.57;;;;;;;;;;4951766;28;20198;-61
2023/03/07 00:28:02;;;;;;;1.50;1.50;;;;;;;;;;4943706;28;20249;-61
2023/03/07 00:30:28;;;;;;;1.77;1.70;;;;;;;;;;4949738;28;20188;-62
2023/03/07 00:32:54;;;;;;;1.70;1.67;;;;;;;;;;4951124;28;20608;-61
2023/03/07 00:35:20;;;;;;;1.60;1.60;;;;;;;;;;4950866;28;20197;-61
2023/03/07 00:37:46;;;;;;;1.60;1.60;;;;;;;;;;4949348;28;20195;-61
2023/03/07 00:40:12;;;;;;;1.47;1.47;;;;;;;;;;4942681;28;20199;-61
2023/03/07 00:42:38;;;;;;;2.10;2.00;;;;;;;;;;4947221;28;20205;-61
2023/03/07 00:45:04;;;;;;;1.90;1.80;;;;;;;;;;4950081;28;20622;-62
2023/03/07 00:47:30;;;;;;;1.60;1.60;;;;;;;;;;4950443;28;20314;-61
2023/03/07 00:49:56;;;;;;;1.47;1.47;;;;;;;;;;4947226;28;20203;-61
2023/03/07 00:52:22;;;;;;;1.57;1.57;;;;;;;;;;4948021;28;20334;-61
2023/03/07 00:54:48;;;;;;;1.50;1.50;;;;;;;;;;4949968;28;20249;-62
2023/03/07 00:57:14;;;;;;;1.53;1.53;;;;;;;;;;4951928;28;20286;-63
2023/03/07 00:59:40;;;;;;;2.00;1.90;;;;;;;;;;4955619;28;20194;-62
2023/03/07 01:02:06;;;;;;;1.87;1.77;;;;;;;;;;4956262;28;20199;-62
2023/03/07 01:04:32;;;;;;;2.00;1.90;;;;;;;;;;4948492;28;20658;-65
2023/03/07 01:06:58;;;;;;;2.00;1.90;;;;;;;;;;4948800;28;20199;-61
2023/03/07 01:09:24;;;;;;;2.57;2.47;;;;;;;;;;4937983;28;21503;-61
2023/03/07 01:11:50;;;;;;;2.20;2.10;;;;;;;;;;4948489;28;20195;-61
2023/03/07 01:14:16;;;;;;;2.20;2.10;;;;;;;;;;4952189;28;20211;-61
2023/03/07 01:16:42;;;;;;;2.00;1.90;;;;;;;;;;4949385;28;20595;-61
2023/03/07 01:19:11;;;;;;;1.83;1.73;;;;;;;;;;4951215;28;20254;-61
2023/03/07 01:21:38;;;;;;;1.90;1.80;;;;;;;;;;4955226;28;20184;-61
2023/03/07 01:24:04;;;;;;;1.83;1.73;;;;;;;;;;4954164;28;20257;-61
2023/03/07 01:26:30;;;;;;;2.20;2.10;;;;;;;;;;4939540;28;20599;-62
2023/03/07 01:28:57;;;;;;;2.00;1.90;;;;;;;;;;4938346;28;20674;-61
2023/03/07 01:31:23;;;;;;;2.00;1.90;;;;;;;;;;4940774;28;20182;-62
2023/03/07 01:33:49;;;;;;;1.87;1.77;;;;;;;;;;4947652;28;20687;-61
2023/03/07 01:36:19;;;;;;;1.90;1.80;;;;;;;;;;4942665;28;20217;-61
2023/03/07 01:38:49;;;;;;;1.90;1.80;;;;;;;;;;4943163;28;20613;-62
2023/03/07 01:41:15;;;;;;;1.67;1.67;;;;;;;;;;4943052;28;20901;-61
2023/03/07 01:43:41;;;;;;;1.93;1.83;;;;;;;;;;4945508;28;20773;-61
2023/03/07 01:46:19;;;;;;;1.83;1.73;;;;;;;;;;4943691;28;20203;-62
2023/03/07 01:48:48;;;;;;;1.73;1.70;;;;;;;;;;4943440;28;20336;-62
2023/03/07 01:51:15;;;;;;;1.50;1.50;;;;;;;;;;4941074;28;20205;-61
2023/03/07 01:53:40;;;;;;;1.90;1.80;;;;;;;;;;4944629;28;20220;-63
2023/03/07 01:56:07;;;;;;;1.90;1.80;;;;;;;;;;4941701;28;20199;-62
2023/03/07 01:58:33;;;;;;;1.80;1.70;;;;;;;;;;4941709;28;20195;-61
2023/03/07 02:00:59;;;;;;;1.50;1.50;;;;;;;;;;4938606;28;20195;-63
2023/03/07 02:03:27;;;;;;;2.10;2.00;;;;;;;;;;4938863;28;20611;-60
2023/03/07 02:05:55;;;;;;;2.10;2.00;;;;;;;;;;4931947;28;20223;-61
2023/03/07 02:08:21;;;;;;;1.80;1.70;;;;;;;;;;4938832;28;20274;-60
2023/03/07 02:10:47;;;;;;;1.60;1.60;;;;;;;;;;4931464;28;20207;-61
2023/03/07 02:13:13;;;;;;;2.00;1.90;;;;;;;;;;4946344;28;20877;-61
2023/03/07 02:15:39;;;;;;;1.90;1.80;;;;;;;;;;4939591;28;20195;-61
2023/03/07 02:18:05;;;;;;;1.93;1.83;;;;;;;;;;4939833;28;20930;-61
2023/03/07 02:20:50;;;;;;;2.10;2.00;;;;;;;;;;4936385;28;20261;-61
2023/03/07 02:23:35;;;;;;;2.00;1.90;;;;;;;;;;4937504;28;20611;-61
2023/03/07 02:26:04;;;;;;;2.53;2.43;;;;;;;;;;4929100;28;20187;-61
2023/03/07 02:28:30;;;;;;;2.10;2.00;;;;;;;;;;4944426;28;20199;-61
2023/03/07 02:31:00;;;;;;;2.00;1.90;;;;;;;;;;4933188;28;20190;-62
2023/03/07 02:33:27;;;;;;;1.63;1.63;;;;;;;;;;4939692;28;20218;-62
2023/03/07 02:35:58;;;;;;;1.83;1.73;;;;;;;;;;4937778;28;20234;-61
2023/03/07 02:38:24;;;;;;;1.50;1.50;;;;;;;;;;4936860;28;20230;-65
2023/03/07 02:40:50;;;;;;;1.67;1.67;;;;;;;;;;4938027;28;20186;-61
2023/03/07 02:43:16;;;;;;;1.80;1.70;;;;;;;;;;4952429;28;20201;-61
2023/03/07 02:45:42;;;;;;;1.90;1.80;;;;;;;;;;4943882;28;20200;-62
2023/03/07 02:48:08;;;;;;;1.90;1.80;;;;;;;;;;4948052;28;20195;-61
2023/03/07 02:50:34;;;;;;;1.90;1.80;;;;;;;;;;4936440;28;20649;-61
2023/03/07 02:53:00;;;;;;;2.20;2.10;;;;;;;;;;4933952;28;20210;-62
2023/03/07 02:55:26;;;;;;;2.00;1.90;;;;;;;;;;4945814;28;20249;-62
2023/03/07 02:57:52;;;;;;;2.13;2.03;;;;;;;;;;4943747;28;20218;-61
2023/03/07 03:00:19;;;;;;;1.87;1.77;;;;;;;;;;4944979;28;20194;-62
2023/03/07 03:02:45;;;;;;;1.97;1.87;;;;;;;;;;4943082;28;21069;-62
2023/03/07 03:05:11;;;;;;;1.93;1.83;;;;;;;;;;4950867;28;20202;-61
2023/03/07 03:07:37;;;;;;;1.90;1.80;;;;;;;;;;4946949;28;20195;-62
2023/03/07 03:10:03;;;;;;;1.70;1.70;;;;;;;;;;4943513;28;20187;-61
2023/03/07 03:12:29;;;;;;;1.60;1.60;;;;;;;;;;4943660;28;20231;-61
2023/03/07 03:14:55;;;;;;;2.10;2.00;;;;;;;;;;4946619;28;20196;-61
2023/03/07 03:17:21;;;;;;;1.80;1.70;;;;;;;;;;4951974;28;20656;-61
2023/03/07 03:19:47;;;;;;;1.90;1.80;;;;;;;;;;4942191;28;20659;-62
2023/03/07 03:22:13;;;;;;;1.60;1.60;;;;;;;;;;4953892;28;20285;-61
2023/03/07 03:24:39;;;;;;;1.60;1.60;;;;;;;;;;4954446;28;20198;-61
2023/03/07 03:27:06;;;;;;;1.80;1.70;;;;;;;;;;4951097;28;20237;-61
2023/03/07 03:29:32;;;;;;;2.20;2.10;;;;;;;;;;4949631;28;20195;-61
2023/03/07 03:31:58;;;;;;;2.00;1.90;;;;;;;;;;4953066;28;20344;-61
2023/03/07 03:34:24;;;;;;;2.03;1.93;;;;;;;;;;4945422;28;20206;-61
2023/03/07 03:36:50;;;;;;;2.10;2.00;;;;;;;;;;4949129;28;20243;-61
2023/03/07 03:39:16;;;;;;;2.30;2.20;;;;;;;;;;4951821;28;20291;-61
2023/03/07 03:41:42;;;;;;;2.20;2.10;;;;;;;;;;4952044;28;20195;-61
2023/03/07 03:44:10;;;;;;;1.90;1.80;;;;;;;;;;4945837;28;20237;-60
2023/03/07 03:46:36;;;;;;;1.70;1.70;;;;;;;;;;4945717;28;20921;-61
2023/03/07 03:49:02;;;;;;;1.67;1.67;;;;;;;;;;4945027;28;20512;-62
2023/03/07 03:51:28;;;;;;;1.60;1.60;;;;;;;;;;4945884;28;20796;-61
2023/03/07 03:53:56;;;;;;;1.90;1.80;;;;;;;;;;4954733;28;20211;-61
2023/03/07 03:56:22;;;;;;;1.70;1.70;;;;;;;;;;4943227;28;20307;-61
2023/03/07 03:58:50;;;;;;;1.77;1.70;;;;;;;;;;4949768;28;20548;-62
2023/03/07 04:01:16;;;;;;;1.80;1.70;;;;;;;;;;4946820;28;20595;-61
2023/03/07 04:03:43;;;;;;;1.80;1.70;;;;;;;;;;4952057;28;20643;-61
2023/03/07 04:06:10;;;;;;;2.00;1.90;;;;;;;;;;4947998;28;20723;-61
2023/03/07 04:08:36;;;;;;;1.70;1.70;;;;;;;;;;4946914;28;20275;-60
2023/03/07 04:11:03;;;;;;;1.80;1.70;;;;;;;;;;4954448;28;20190;-62
2023/03/07 04:13:29;;;;;;;1.80;1.70;;;;;;;;;;4954377;28;20777;-61
2023/03/07 04:15:55;;;;;;;1.80;1.70;;;;;;;;;;4949856;28;20254;-61
2023/03/07 04:18:21;;;;;;;1.50;1.50;;;;;;;;;;4957254;28;20658;-60
2023/03/07 04:20:48;;;;;;;2.03;1.93;;;;;;;;;;4957574;28;20183;-61
2023/03/07 04:23:14;;;;;;;1.60;1.60;;;;;;;;;;4948278;28;20196;-61
2023/03/07 04:25:40;;;;;;;1.90;1.80;;;;;;;;;;4954159;28;20206;-61
2023/03/07 04:28:06;;;;;;;2.00;1.90;;;;;;;;;;4947273;28;20199;-61
2023/03/07 04:30:32;;;;;;;1.70;1.70;;;;;;;;;;4949267;28;20798;-61
2023/03/07 04:32:58;;;;;;;2.00;1.90;;;;;;;;;;4952133;28;20921;-61
2023/03/07 04:35:24;;;;;;;1.60;1.60;;;;;;;;;;4950364;28;20191;-61
2023/03/07 04:37:50;;;;;;;1.50;1.50;;;;;;;;;;4952383;28;20195;-60
2023/03/07 04:40:16;;;;;;;1.87;1.77;;;;;;;;;;4954175;28;20499;-61
2023/03/07 04:42:42;;;;;;;1.60;1.60;;;;;;;;;;4954126;28;20258;-61
2023/03/07 04:45:08;;;;;;;2.00;1.90;;;;;;;;;;4947729;28;20194;-61
2023/03/07 04:47:34;;;;;;;1.80;1.70;;;;;;;;;;4952199;28;20909;-61
2023/03/07 04:50:00;;;;;;;1.90;1.80;;;;;;;;;;4949393;28;20202;-62
2023/03/07 04:52:26;;;;;;;2.30;2.20;;;;;;;;;;4938000;28;20276;-62
2023/03/07 04:54:52;;;;;;;1.90;1.80;;;;;;;;;;4947613;28;20227;-61
2023/03/07 04:57:18;;;;;;;2.20;2.10;;;;;;;;;;4949536;28;20206;-61
2023/03/07 04:59:44;;;;;;;2.17;2.07;;;;;;;;;;4947568;28;20246;-62
2023/03/07 05:02:11;;;;;;;2.20;2.10;;;;;;;;;;4943148;28;20275;-62
2023/03/07 05:04:37;;;;;;;2.20;2.10;;;;;;;;;;4950041;28;20226;-61
2023/03/07 05:07:03;;;;;;;2.00;1.90;;;;;;;;;;4939069;28;20663;-63
2023/03/07 05:09:29;;;;;;;1.60;1.60;;;;;;;;;;4947582;28;20656;-61
2023/03/07 05:11:55;;;;;;;1.70;1.70;;;;;;;;;;4942246;28;20267;-61
2023/03/07 05:14:21;;;;;;;1.90;1.80;;;;;;;;;;4941024;28;20230;-61
2023/03/07 05:16:47;;;;;;;1.97;1.87;;;;;;;;;;4942144;28;20658;-61
2023/03/07 05:19:13;;;;;;;1.80;1.70;;;;;;;;;;4945960;28;20179;-61
2023/03/07 05:21:40;;;;;;;1.80;1.70;;;;;;;;;;4937555;28;20197;-61
2023/03/07 05:24:07;;;;;;;1.70;1.70;;;;;;;;;;4950553;28;20184;-61
2023/03/07 05:26:33;;;;;;;1.90;1.80;;;;;;;;;;4953331;28;20214;-61
2023/03/07 05:28:59;;;;;;;1.90;1.80;;;;;;;;;;4950411;28;20191;-61
2023/03/07 05:31:25;;;;;;;1.60;1.60;;;;;;;;;;4947048;28;20219;-61
2023/03/07 05:33:51;;;;;;;1.80;1.70;;;;;;;;;;4952437;28;20219;-61
2023/03/07 05:36:17;;;;;;;1.90;1.80;;;;;;;;;;4952828;28;20572;-61
2023/03/07 05:38:43;;;;;;;1.70;1.70;;;;;;;;;;4944214;28;20187;-61
2023/03/07 05:41:09;;;;;;;1.87;1.77;;;;;;;;;;4950148;28;20191;-61
2023/03/07 05:43:35;;;;;;;1.73;1.70;;;;;;;;;;4954312;28;20772;-62
2023/03/07 05:46:01;;;;;;;1.70;1.70;;;;;;;;;;4938908;28;20652;-62
2023/03/07 05:48:26;;;;;;;1.60;1.60;;;;;;;;;;4949986;28;21136;-63
2023/03/07 05:50:53;;;;;;;1.83;1.73;;;;;;;;;;4952191;28;20222;-61
2023/03/07 05:53:19;;;;;;;1.70;1.70;;;;;;;;;;4944753;28;20255;-61
2023/03/07 05:55:45;;;;;;;1.90;1.80;;;;;;;;;;4948794;28;20282;-62
2023/03/07 05:58:10;;;;;;;1.67;1.67;;;;;;;;;;4949773;28;20194;-61
2023/03/07 06:00:36;;;;;;;2.00;1.90;;;;;;;;;;4953712;28;20649;-61
2023/03/07 06:03:03;;;;;;;1.80;1.70;;;;;;;;;;4950308;28;20245;-61
2023/03/07 06:05:29;;;;;;;1.60;1.60;;;;;;;;;;4943504;28;20210;-60
2023/03/07 06:07:54;;;;;;;1.50;1.50;;;;;;;;;;4956332;28;20186;-61
2023/03/07 06:10:21;;;;;;;2.07;1.97;;;;;;;;;;4957516;28;20201;-61
2023/03/07 06:12:50;;;;;;;1.60;1.60;;;;;;;;;;4936502;28;20330;-61
2023/03/07 06:15:16;;;;;;;1.93;1.83;;;;;;;;;;4945241;28;20263;-61
2023/03/07 06:17:42;;;;;;;1.60;1.60;;;;;;;;;;4939480;28;20194;-61
2023/03/07 06:20:08;;;;;;;1.50;1.50;;;;;;;;;;4945384;28;20285;-61
2023/03/07 06:22:37;;;;;;;1.90;1.80;;;;;;;;;;4955463;28;20199;-61
2023/03/07 06:25:03;;;;;;;1.63;1.63;;;;;;;;;;4961989;28;20245;-61
2023/03/07 06:27:32;;;;;;;1.90;1.80;;;;;;;;;;4957965;28;20555;-61
2023/03/07 06:29:57;;;;;;;1.70;1.70;;;;;;;;;;4952060;28;20282;-61
2023/03/07 06:32:23;;;;;;;1.90;1.80;;;;;;;;;;4953039;28;20277;-63
2023/03/07 06:34:49;;;;;;;1.70;1.70;;;;;;;;;;4954652;28;20217;-61
2023/03/07 06:37:15;;;;;;;1.40;1.40;;;;;;;;;;4942124;28;20614;-61
2023/03/07 06:39:41;;;;;;;1.50;1.50;;;;;;;;;;4952868;28;20210;-61
2023/03/07 06:42:07;;;;;;;1.60;1.60;;;;;;;;;;4951997;28;20210;-61
2023/03/07 06:44:33;;;;;;;1.50;1.50;;;;;;;;;;4959322;28;20191;-61
2023/03/07 06:46:59;;;;;;;1.70;1.70;;;;;;;;;;4956413;28;20212;-61
2023/03/07 06:49:25;;;;;;;1.50;1.50;;;;;;;;;;4949853;28;20521;-61
2023/03/07 06:51:51;;;;;;;1.77;1.70;;;;;;;;;;4954400;28;20567;-62
2023/03/07 06:54:17;;;;;;;1.60;1.60;;;;;;;;;;4957724;28;20215;-61
2023/03/07 06:56:43;;;;;;;1.63;1.63;;;;;;;;;;4960872;28;20185;-61
2023/03/07 06:59:10;;;;;;;1.60;1.60;;;;;;;;;;4956908;28;20198;-61
2023/03/07 07:01:36;;;;;;;1.90;1.80;;;;;;;;;;4965055;28;20186;-61
2023/03/07 07:04:02;;;;;;;1.60;1.60;;;;;;;;;;4958723;28;20248;-62
2023/03/07 07:06:27;;;;;;;1.60;1.60;;;;;;;;;;4959909;28;20679;-61
2023/03/07 07:08:57;;;;;;;1.63;1.63;;;;;;;;;;4952839;28;20194;-61
2023/03/07 07:11:24;;;;;;;1.70;1.70;;;;;;;;;;4955821;28;20211;-61
2023/03/07 07:13:50;;;;;;;1.77;1.70;;;;;;;;;;4951832;28;20665;-61
2023/03/07 07:16:16;;;;;;;1.47;1.47;;;;;;;;;;4948535;28;20221;-61
2023/03/07 07:18:43;;;;;;;1.50;1.50;;;;;;;;;;4960340;28;20199;-61
2023/03/07 07:21:09;;;;;;;1.73;1.70;;;;;;;;;;4958564;28;20226;-61
2023/03/07 07:23:35;;;;;;;1.50;1.50;;;;;;;;;;4960386;28;20191;-62
2023/03/07 07:26:01;;;;;;;1.50;1.50;;;;;;;;;;4958364;28;20241;-61
2023/03/07 07:28:27;;;;;;;1.70;1.70;;;;;;;;;;4955953;28;20666;-62
2023/03/07 07:30:53;;;;;;;1.70;1.70;;;;;;;;;;4956442;28;20204;-61
2023/03/07 07:33:19;;;;;;;1.90;1.80;;;;;;;;;;4957666;28;20215;-61
2023/03/07 07:35:45;;;;;;;1.70;1.70;;;;;;;;;;4951313;28;20187;-61
2023/03/07 07:38:12;;;;;;;1.60;1.60;;;;;;;;;;4954473;28;20265;-62
2023/03/07 07:40:38;;;;;;;2.03;1.93;;;;;;;;;;4960652;28;20187;-62
2023/03/07 07:43:04;;;;;;;1.60;1.60;;;;;;;;;;4963401;28;20183;-62
2023/03/07 07:45:30;;;;;;;1.77;1.70;;;;;;;;;;4962381;28;20215;-62
2023/03/07 07:47:55;;;;;;;1.87;1.77;;;;;;;;;;4964268;28;20616;-61
2023/03/07 07:50:23;;;;;;;1.40;1.40;;;;;;;;;;4955483;28;20615;-63
2023/03/07 07:52:49;;;;;;;1.70;1.70;;;;;;;;;;4962408;28;20258;-61
2023/03/07 07:55:15;;;;;;;1.70;1.70;;;;;;;;;;4958072;28;20203;-62
2023/03/07 07:57:41;;;;;;;1.60;1.60;;;;;;;;;;4957189;28;20195;-61
2023/03/07 08:00:09;;;;;;;1.90;1.80;;;;;;;;;;4960834;28;20198;-61
2023/03/07 08:02:36;;;;;;;1.60;1.60;;;;;;;;;;4961977;28;20246;-61
2023/03/07 08:05:05;;;;;;;1.50;1.50;;;;;;;;;;4964669;28;20191;-61
2023/03/07 08:07:31;;;;;;;1.53;1.53;;;;;;;;;;4964692;28;20196;-61
2023/03/07 08:09:57;;;;;;;1.63;1.63;;;;;;;;;;4961976;28;20583;-61
2023/03/07 08:12:23;;;;;;;1.83;1.73;;;;;;;;;;4961706;28;20773;-62
2023/03/07 08:14:49;;;;;;;1.70;1.70;;;;;;;;;;4961509;28;20303;-61
2023/03/07 08:17:15;;;;;;;1.53;1.53;;;;;;;;;;4959682;28;20199;-61
2023/03/07 08:19:40;;;;;;;1.50;1.50;;;;;;;;;;4960759;28;20412;-61
2023/03/07 08:22:06;;;;;;;1.77;1.70;;;;;;;;;;4965134;28;20605;-61
2023/03/07 08:24:34;;;;;;;1.50;1.50;;;;;;;;;;4961326;28;20175;-61
2023/03/07 08:27:00;;;;;;;1.87;1.77;;;;;;;;;;4965347;28;20187;-61
2023/03/07 08:29:26;;;;;;;1.80;1.70;;;;;;;;;;4959451;28;20580;-62
2023/03/07 08:31:53;;;;;;;1.90;1.80;;;;;;;;;;4961614;28;20191;-61
2023/03/07 08:34:19;;;;;;;1.50;1.50;;;;;;;;;;4963096;28;20214;-61
2023/03/07 08:36:45;;;;;;;1.40;1.40;;;;;;;;;;4963218;28;20190;-61
2023/03/07 08:39:11;;;;;;;1.50;1.50;;;;;;;;;;4963082;28;20237;-61
2023/03/07 08:41:37;;;;;;;1.60;1.60;;;;;;;;;;4965086;28;20683;-61
2023/03/07 08:44:03;;;;;;;1.80;1.70;;;;;;;;;;4966441;28;20191;-63
2023/03/07 08:46:29;;;;;;;1.53;1.53;;;;;;;;;;4960964;28;20194;-61
2023/03/07 08:48:55;;;;;;;1.90;1.80;;;;;;;;;;4962260;28;20290;-61
2023/03/07 08:51:21;;;;;;;1.80;1.70;;;;;;;;;;4965755;28;20190;-61
2023/03/07 08:53:46;;;;;;;1.90;1.80;;;;;;;;;;4963497;28;20272;-61
2023/03/07 08:56:17;;;;;;;1.73;1.70;;;;;;;;;;4963662;28;20662;-61
2023/03/07 08:58:43;;;;;;;1.80;1.70;;;;;;;;;;4959602;28;20187;-62
2023/03/07 09:01:09;;;;;;;1.87;1.77;;;;;;;;;;4963135;28;20911;-61
2023/03/07 09:03:35;;;;;;;1.60;1.60;;;;;;;;;;4956240;28;20810;-61
2023/03/07 09:06:01;;;;;;;1.50;1.50;;;;;;;;;;4956424;28;20199;-61
2023/03/07 09:08:27;;;;;;;1.90;1.80;;;;;;;;;;4960719;28;20669;-61
2023/03/07 09:10:53;;;;;;;1.80;1.70;;;;;;;;;;4956322;28;20218;-61
2023/03/07 09:13:19;;;;;;;1.50;1.50;;;;;;;;;;4958732;28;20220;-61
2023/03/07 09:15:45;;;;;;;1.70;1.70;;;;;;;;;;4956074;28;20195;-61
2023/03/07 09:18:11;;;;;;;1.60;1.60;;;;;;;;;;4960326;28;20199;-61
2023/03/07 09:20:37;;;;;;;1.60;1.60;;;;;;;;;;4957697;28;20183;-61
2023/03/07 09:23:03;;;;;;;1.60;1.60;;;;;;;;;;4961181;28;20648;-61
2023/03/07 09:25:30;;;;;;;1.60;1.60;;;;;;;;;;4961615;28;20283;-62
2023/03/07 09:27:56;;;;;;;1.50;1.50;;;;;;;;;;4956423;28;20202;-61
2023/03/07 09:30:22;;;;;;;1.80;1.70;;;;;;;;;;4960343;28;20191;-62
2023/03/07 09:32:48;;;;;;;1.67;1.67;;;;;;;;;;4963587;28;20207;-61
2023/03/07 09:35:14;;;;;;;1.67;1.67;;;;;;;;;;4961316;28;20183;-61
2023/03/07 09:37:40;;;;;;;1.60;1.60;;;;;;;;;;4960253;28;20202;-61
2023/03/07 09:40:06;;;;;;;1.50;1.50;;;;;;;;;;4963966;28;20364;-62
2023/03/07 09:42:46;;;;;;;1.40;1.40;;;;;;;;;;4960150;28;20194;-62
2023/03/07 09:45:34;;;;;;;1.87;1.77;;;;;;;;;;4956827;28;20186;-61
2023/03/07 09:48:20;;;;;;;1.60;1.60;;;;;;;;;;4952308;28;20588;-61
2023/03/07 09:50:53;;;;;;;1.50;1.50;;;;;;;;;;4952343;28;20203;-62
2023/03/07 09:53:39;;;;;;;1.60;1.60;;;;;;;;;;4960024;28;20207;-62
2023/03/07 09:56:10;;;;;;;1.60;1.60;;;;;;;;;;4958945;28;20187;-61
2023/03/07 09:58:36;;;;;;;1.60;1.60;;;;;;;;;;4961473;28;20187;-62
2023/03/07 10:01:02;;;;;;;1.40;1.40;;;;;;;;;;4958417;28;20194;-61
2023/03/07 10:03:28;;;;;;;1.70;1.67;;;;;;;;;;4960051;28;20235;-61
2023/03/07 10:05:55;;;;;;;1.77;1.70;;;;;;;;;;4950882;28;20199;-61
2023/03/07 10:08:22;;;;;;;1.90;1.80;;;;;;;;;;4949691;28;20205;-61
2023/03/07 10:11:00;;;;;;;2.00;1.90;;;;;;;;;;4952668;28;20222;-60
2023/03/07 10:13:39;;;;;;;1.60;1.60;;;;;;;;;;4966952;28;20218;-61
2023/03/07 10:16:15;;;;;;;1.70;1.70;;;;;;;;;;4953559;28;20270;-61
2023/03/07 10:18:41;;;;;;;1.67;1.67;;;;;;;;;;4958548;28;20261;-61
2023/03/07 10:21:12;;;;;;;1.77;1.67;;;;;;;;;;4948669;28;20745;-60
2023/03/07 10:24:00;;;;;;;1.90;1.80;;;;;;;;;;4950016;28;20277;-61
2023/03/07 10:26:32;;;;;;;1.50;1.50;;;;;;;;;;4949349;28;20225;-61
2023/03/07 10:28:59;;;;;;;1.70;1.70;;;;;;;;;;4948613;28;20222;-61
2023/03/07 10:31:27;;;;;;;1.70;1.70;;;;;;;;;;4965176;28;20275;-61
2023/03/07 10:33:53;;;;;;;1.90;1.80;;;;;;;;;;4951809;28;20226;-61
2023/03/07 10:36:32;;;;;;;1.93;1.83;;;;;;;;;;4953433;28;20281;-61
2023/03/07 10:39:03;;;;;;;1.10;1.10;;;;;;;;;;4953949;28;20182;-61
2023/03/07 10:41:29;;;;;;;1.00;1.00;;;;;;;;;;4953143;28;20187;-61
2023/03/07 10:43:55;;;;;;;1.30;1.30;;;;;;;;;;4942590;28;20191;-61
2023/03/07 10:46:26;;;;;;;1.10;1.10;;;;;;;;;;4952481;28;20199;-61
2023/03/07 10:48:53;;;;;;;1.00;1.00;;;;;;;;;;4947082;28;20242;-61
2023/03/07 10:51:35;;;;;;;1.00;1.00;;;;;;;;;;4948075;28;20608;-61
2023/03/07 10:54:02;;;;;;;1.10;1.10;;;;;;;;;;4957728;28;20225;-61
2023/03/07 10:56:28;;;;;;;1.10;1.10;;;;;;;;;;4955259;28;20199;-61
2023/03/07 10:59:04;;;;;;;1.10;1.10;;;;;;;;;;4951438;28;20191;-60
2023/03/07 11:01:30;;;;;;;1.10;1.10;;;;;;;;;;4956933;28;20699;-61
2023/03/07 11:03:59;;;;;;;1.10;1.10;;;;;;;;;;4948610;28;20239;-61
2023/03/07 11:06:25;;;;;;;1.00;1.00;;;;;;;;;;4946052;28;20201;-61
2023/03/07 11:08:51;;;;;;;1.00;1.00;;;;;;;;;;4948477;28;20199;-61
2023/03/07 11:11:24;;;;;;;0.97;0.97;;;;;;;;;;4949886;28;20213;-60
2023/03/07 11:14:07;;;;;;;1.00;1.00;;;;;;;;;;4947639;28;20526;-61
2023/03/07 11:16:33;;;;;;;0.90;0.90;;;;;;;;;;4955841;28;20707;-62
2023/03/07 11:18:59;;;;;;;0.80;0.80;;;;;;;;;;4958279;28;20322;-61
2023/03/07 11:21:26;;;;;;;0.90;0.90;;;;;;;;;;4958415;28;20183;-61
2023/03/07 11:24:03;;;;;;;1.00;1.00;;;;;;;;;;4955504;28;20880;-61
2023/03/07 11:26:30;;;;;;;1.00;1.00;;;;;;;;;;4957215;28;20203;-62
2023/03/07 11:29:05;;;;;;;1.00;1.00;;;;;;;;;;4949216;28;20794;-61
2023/03/07 11:31:42;;;;;;;1.00;1.00;;;;;;;;;;4952010;28;20186;-62
2023/03/07 11:34:25;;;;;;;0.90;0.90;;;;;;;;;;4952470;28;20296;-61
2023/03/07 11:36:54;;;;;;;0.90;0.90;;;;;;;;;;4960393;28;20617;-61
2023/03/07 11:39:23;;;;;;;0.90;0.90;;;;;;;;;;4960557;28;20561;-61
2023/03/07 11:41:54;;;;;;;0.93;0.93;;;;;;;;;;4951663;28;20206;-61
2023/03/07 11:44:41;;;;;;;1.00;1.00;;;;;;;;;;4951424;28;20233;-60
2023/03/07 11:47:07;;;;;;;1.00;1.00;;;;;;;;;;4947764;28;20199;-60
2023/03/07 11:49:39;;;;;;;0.90;0.90;;;;;;;;;;4955185;28;20254;-61
2023/03/07 11:52:23;;;;;;;1.00;1.00;;;;;;;;;;4951301;28;20207;-61
2023/03/07 11:54:52;;;;;;;1.00;1.00;;;;;;;;;;4948320;28;20206;-61
2023/03/07 11:57:24;;;;;;;0.90;0.90;;;;;;;;;;4951850;28;20235;-60
2023/03/07 11:59:58;;;;;;;1.00;1.00;;;;;;;;;;4946886;28;20194;-62
2023/03/07 12:02:48;;;;;;;1.00;1.00;;;;;;;;;;4958124;28;20222;-61
2023/03/07 12:05:17;;;;;;;1.00;1.00;;;;;;;;;;4948714;28;20211;-61
2023/03/07 12:07:53;;;;;;;0.97;0.97;;;;;;;;;;4956563;28;20183;-62
2023/03/07 12:10:25;;;;;;;1.00;1.00;;;;;;;;;;4949932;28;20609;-62
2023/03/07 12:12:59;;;;;;;0.90;0.90;;;;;;;;;;4951867;28;20229;-60
2023/03/07 12:15:26;;;;;;;1.10;1.10;;;;;;;;;;4953547;28;20706;-62
2023/03/07 12:18:06;;;;;;;0.90;0.90;;;;;;;;;;4947383;28;20314;-61
2023/03/07 12:20:44;;;;;;;0.90;0.90;;;;;;;;;;4958366;28;20202;-61
2023/03/07 12:23:11;;;;;;;1.00;1.00;;;;;;;;;;4960265;28;20303;-61
2023/03/07 12:25:38;;;;;;;0.90;0.90;;;;;;;;;;4964010;28;20222;-61
2023/03/07 12:28:04;;;;;;;0.90;0.90;;;;;;;;;;4954717;28;20206;-62
2023/03/07 12:30:49;;;;;;;1.10;1.10;;;;;;;;;;4952746;28;20187;-62
2023/03/07 12:33:18;;;;;;;1.00;1.00;;;;;;;;;;4964172;28;20580;-61
2023/03/07 12:35:48;;;;;;;1.07;1.07;;;;;;;;;;4958227;28;20187;-61
2023/03/07 12:38:35;;;;;;;1.07;1.07;;;;;;;;;;4959648;28;20651;-61
2023/03/07 12:41:04;;;;;;;1.00;1.00;;;;;;;;;;4949656;28;20287;-61
2023/03/07 12:43:36;;;;;;;0.90;0.90;;;;;;;;;;4946094;28;20291;-62
2023/03/07 12:46:15;;;;;;;1.00;1.00;;;;;;;;;;4954257;28;20653;-61
2023/03/07 12:48:47;;;;;;;1.10;1.10;;;;;;;;;;4955851;28;20202;-61
2023/03/07 12:51:23;;;;;;;0.90;0.90;;;;;;;;;;4952675;28;20649;-61
2023/03/07 12:53:57;;;;;;;1.17;1.17;;;;;;;;;;4960929;28;20227;-61
2023/03/07 12:56:35;;;;;;;1.00;1.00;;;;;;;;;;4951294;28;20191;-61
2023/03/07 12:59:11;;;;;;;1.00;1.00;;;;;;;;;;4956273;28;20191;-61
2023/03/07 13:01:38;;;;;;;1.20;1.20;;;;;;;;;;4949073;28;20202;-61
2023/03/07 13:04:04;;;;;;;1.10;1.10;;;;;;;;;;4953524;28;20600;-61
2023/03/07 13:06:30;;;;;;;1.10;1.10;;;;;;;;;;4953908;28;20189;-61
2023/03/07 13:09:00;;;;;;;1.00;1.00;;;;;;;;;;4957991;28;20195;-61
2023/03/07 13:11:27;;;;;;;1.20;1.20;;;;;;;;;;4959350;28;20537;-62
2023/03/07 13:13:54;;;;;;;1.00;1.00;;;;;;;;;;4956023;28;20682;-61
2023/03/07 13:16:32;;;;;;;0.90;0.90;;;;;;;;;;4954330;28;20746;-61
2023/03/07 13:19:17;;;;;;;0.90;0.90;;;;;;;;;;4954868;28;20179;-62
2023/03/07 13:21:43;;;;;;;1.00;1.00;;;;;;;;;;4956328;28;20668;-62
2023/03/07 13:24:27;;;;;;;1.00;1.00;;;;;;;;;;4957848;28;20234;-61
2023/03/07 13:26:54;;;;;;;1.10;1.10;;;;;;;;;;4960022;28;20190;-61
2023/03/07 13:29:40;;;;;;;0.97;0.97;;;;;;;;;;4955288;28;20767;-61
2023/03/07 13:32:25;;;;;;;1.10;1.10;;;;;;;;;;4955185;28;20605;-61
2023/03/07 13:34:52;;;;;;;1.00;1.00;;;;;;;;;;4959620;28;20678;-61
2023/03/07 13:37:43;;;;;;;0.97;0.97;;;;;;;;;;4961081;28;20191;-61
2023/03/07 13:40:41;;;;;;;1.10;1.10;;;;;;;;;;4959136;28;20241;-61
2023/03/07 13:43:19;;;;;;;1.00;1.00;;;;;;;;;;4941342;28;20621;-60
2023/03/07 13:45:46;;;;;;;1.20;1.20;;;;;;;;;;4956962;28;20190;-61
2023/03/07 13:48:14;;;;;;;1.17;1.17;;;;;;;;;;4943704;28;20199;-61
2023/03/07 13:50:49;;;;;;;1.00;1.00;;;;;;;;;;4942527;28;20203;-61
2023/03/07 13:53:16;;;;;;;1.13;1.13;;;;;;;;;;4950537;28;20210;-60
2023/03/07 13:55:45;;;;;;;1.00;1.00;;;;;;;;;;4949221;28;20187;-61
2023/03/07 13:58:23;;;;;;;1.00;1.00;;;;;;;;;;4940723;28;20601;-62
2023/03/07 14:00:50;;;;;;;1.20;1.20;;;;;;;;;;4943588;28;20198;-61
2023/03/07 14:03:30;;;;;;;1.00;1.00;;;;;;;;;;4951883;28;20321;-61
2023/03/07 14:05:57;;;;;;;1.00;1.00;;;;;;;;;;4946594;28;20199;-62
2023/03/07 14:08:24;;;;;;;1.20;1.20;;;;;;;;;;4952663;28;20194;-61
2023/03/07 14:10:50;;;;;;;1.10;1.10;;;;;;;;;;4952755;28;20693;-61
2023/03/07 14:13:19;;;;;;;0.90;0.90;;;;;;;;;;4953139;28;20242;-61
2023/03/07 14:15:48;;;;;;;1.20;1.20;;;;;;;;;;4951758;28;20258;-61
2023/03/07 14:18:17;;;;;;;1.00;1.00;;;;;;;;;;4956412;28;20202;-61
2023/03/07 14:20:54;;;;;;;0.90;0.90;;;;;;;;;;4958373;28;20187;-61
2023/03/07 14:23:29;;;;;;;1.00;1.00;;;;;;;;;;4959700;28;20301;-60
2023/03/07 14:26:07;;;;;;;1.10;1.10;;;;;;;;;;4955966;28;20430;-61
2023/03/07 14:28:33;;;;;;;1.00;1.00;;;;;;;;;;4945120;28;20594;-61
2023/03/07 14:31:00;;;;;;;1.30;1.30;;;;;;;;;;4938242;28;20734;-63
2023/03/07 14:33:44;;;;;;;1.10;1.10;;;;;;;;;;4934070;28;20214;-61
2023/03/07 14:36:15;;;;;;;1.07;1.07;;;;;;;;;;4946216;28;20721;-61
2023/03/07 14:38:41;;;;;;;1.00;1.00;;;;;;;;;;4948172;28;20254;-61
2023/03/07 14:41:24;;;;;;;1.00;1.00;;;;;;;;;;4947929;28;20198;-61
2023/03/07 14:44:08;;;;;;;1.10;1.10;;;;;;;;;;4949632;28;20287;-60
2023/03/07 14:46:53;;;;;;;1.07;1.07;;;;;;;;;;4949314;28;20281;-60
2023/03/07 14:49:25;;;;;;;1.17;1.17;;;;;;;;;;4937065;28;20661;-60
2023/03/07 14:51:51;;;;;;;1.00;1.00;;;;;;;;;;4944038;28;20199;-60